Time;durP1;ratioP1;P1;durP2;ratioP2;P2;SDS_P1;SDS_P2;PMS_P1;PMS_P2;Temp;Humidity;BMP_temperature;BMP_pressure;BME280_temperature;BME280_humidity;BME280_pressure;Samples;Min_cycle;Max_cycle;Signal;HPM_P1;HPM_P2
2022/12/09 00:01:32;;;;;;;;;;;;;;;;;;6227667;23;19923;-89
2022/12/09 00:03:58;;;;;;;;;;;;;;;;;;6228522;23;19924;-88
2022/12/09 00:06:23;;;;;;;;;;;;;;;;;;6228010;23;19920;-89
2022/12/09 00:08:49;;;;;;;;;;;;;;;;;;6230058;23;19977;-88
2022/12/09 00:11:15;;;;;;;;;;;;;;;;;;6233479;23;19924;-89
2022/12/09 00:13:41;;;;;;;;;;;;;;;;;;6231498;23;19930;-89
2022/12/09 00:16:07;;;;;;;;;;;;;;;;;;6233990;23;20341;-88
2022/12/09 00:18:33;;;;;;;;;;;;;;;;;;6256135;22;19922;-89
2022/12/09 00:20:59;;;;;;;;;;;;;;;;;;6232967;23;19923;-88
2022/12/09 00:23:25;;;;;;;;;;;;;;;;;;6234852;23;19931;-88
2022/12/09 00:25:51;;;;;;;;;;;;;;;;;;6229791;23;20350;-88
2022/12/09 00:28:17;;;;;;;;;;;;;;;;;;6233717;23;19994;-88
2022/12/09 00:30:43;;;;;;;;;;;;;;;;;;6230833;23;19966;-88
2022/12/09 00:33:09;;;;;;;;;;;;;;;;;;6235532;23;19920;-89
2022/12/09 00:35:35;;;;;;;;;;;;;;;;;;6229367;23;19923;-88
2022/12/09 00:38:01;;;;;;;;;;;;;;;;;;6229797;23;19920;-88
2022/12/09 00:40:27;;;;;;;;;;;;;;;;;;6227993;23;19923;-88
2022/12/09 00:42:52;;;;;;;;;;;;;;;;;;6226093;23;19926;-88
2022/12/09 00:45:18;;;;;;;;;;;;;;;;;;6231160;23;19919;-89
2022/12/09 00:47:44;;;;;;;;;;;;;;;;;;6225661;23;19915;-89
2022/12/09 00:50:10;;;;;;;;;;;;;;;;;;6230296;23;19923;-88
2022/12/09 00:52:36;;;;;;;;;;;;;;;;;;6227631;23;19924;-89
2022/12/09 00:55:02;;;;;;;;;;;;;;;;;;6228371;22;19915;-89
2022/12/09 00:57:28;;;;;;;;;;;;;;;;;;6230606;23;19990;-89
2022/12/09 00:59:54;;;;;;;;;;;;;;;;;;6224598;23;19974;-88
2022/12/09 01:02:20;;;;;;;;;;;;;;;;;;6227359;23;19920;-88
2022/12/09 01:04:46;;;;;;;;;;;;;;;;;;6225938;23;20023;-88
2022/12/09 01:07:12;;;;;;;;;;;;;;;;;;6227796;23;19919;-88
2022/12/09 01:09:38;;;;;;;;;;;;;;;;;;6226092;23;20297;-88
2022/12/09 01:12:04;;;;;;;;;;;;;;;;;;6230631;23;19966;-88
2022/12/09 01:14:30;;;;;;;;;;;;;;;;;;6228644;23;19924;-88
2022/12/09 01:16:56;;;;;;;;;;;;;;;;;;6223807;23;19942;-89
2022/12/09 01:19:22;;;;;;;;;;;;;;;;;;6228452;23;19990;-88
2022/12/09 01:21:48;;;;;;;;;;;;;;;;;;6225484;23;19919;-89
2022/12/09 01:24:14;;;;;;;;;;;;;;;;;;6227893;23;19927;-89
2022/12/09 01:26:40;;;;;;;;;;;;;;;;;;6225648;23;19920;-89
2022/12/09 01:29:06;;;;;;;;;;;;;;;;;;6227891;23;19964;-89
2022/12/09 01:31:32;;;;;;;;;;;;;;;;;;6226348;23;20407;-89
2022/12/09 01:33:58;;;;;;;;;;;;;;;;;;6229009;23;20399;-88
2022/12/09 01:36:24;;;;;;;;;;;;;;;;;;6228828;23;19924;-89
2022/12/09 01:38:50;;;;;;;;;;;;;;;;;;6227578;23;19926;-88
2022/12/09 01:41:16;;;;;;;;;;;;;;;;;;6231963;23;20268;-89
2022/12/09 01:43:42;;;;;;;;;;;;;;;;;;6228503;23;20394;-88
2022/12/09 01:46:08;;;;;;;;;;;;;;;;;;6228182;23;19923;-88
2022/12/09 01:48:34;;;;;;;;;;;;;;;;;;6227453;23;19919;-89
2022/12/09 01:51:00;;;;;;;;;;;;;;;;;;6232631;23;19935;-89
2022/12/09 01:53:26;;;;;;;;;;;;;;;;;;6230473;23;20344;-89
2022/12/09 01:55:52;;;;;;;;;;;;;;;;;;6228864;22;20442;-88
2022/12/09 01:58:24;;;;;;;;;;;;;;;;;;6229798;23;20237;-89
2022/12/09 02:00:50;;;;;;;;;;;;;;;;;;6224325;23;19919;-89
2022/12/09 02:03:16;;;;;;;;;;;;;;;;;;6222950;23;19950;-89
2022/12/09 02:05:42;;;;;;;;;;;;;;;;;;6228160;23;19919;-89
2022/12/09 02:08:08;;;;;;;;;;;;;;;;;;6234258;23;19919;-89
2022/12/09 02:10:33;;;;;;;;;;;;;;;;;;6231165;23;20014;-89
2022/12/09 02:12:59;;;;;;;;;;;;;;;;;;6231924;23;19927;-89
2022/12/09 02:15:25;;;;;;;;;;;;;;;;;;6230787;23;19974;-89
2022/12/09 02:17:51;;;;;;;;;;;;;;;;;;6230814;23;20861;-89
2022/12/09 02:20:17;;;;;;;;;;;;;;;;;;6233917;23;20079;-89
2022/12/09 02:22:43;;;;;;;;;;;;;;;;;;6233646;23;19923;-89
2022/12/09 02:25:10;;;;;;;;;;;;;;;;;;6235437;23;19920;-89
2022/12/09 02:27:35;;;;;;;;;;;;;;;;;;6231054;23;19924;-89
2022/12/09 02:30:01;;;;;;;;;;;;;;;;;;6233058;23;19990;-89
2022/12/09 02:32:27;;;;;;;;;;;;;;;;;;6232990;23;19930;-89
2022/12/09 02:34:53;;;;;;;;;;;;;;;;;;6228497;23;19919;-89
2022/12/09 02:37:19;;;;;;;;;;;;;;;;;;6233246;23;20405;-89
2022/12/09 02:39:45;;;;;;;;;;;;;;;;;;6227383;23;19923;-90
2022/12/09 02:42:11;;;;;;;;;;;;;;;;;;6233343;23;19922;-90
2022/12/09 02:44:37;;;;;;;;;;;;;;;;;;6230926;23;19923;-90
2022/12/09 02:47:03;;;;;;;;;;;;;;;;;;6233782;23;19926;-89
2022/12/09 02:49:29;;;;;;;;;;;;;;;;;;6234430;23;19926;-89
2022/12/09 02:51:55;;;;;;;;;;;;;;;;;;6229884;23;19920;-89
2022/12/09 02:54:21;;;;;;;;;;;;;;;;;;6231677;22;19974;-89
2022/12/09 02:56:47;;;;;;;;;;;;;;;;;;6229918;23;19919;-89
2022/12/09 02:59:13;;;;;;;;;;;;;;;;;;6233829;23;20415;-89
2022/12/09 03:01:39;;;;;;;;;;;;;;;;;;6231107;23;20384;-89
2022/12/09 03:04:05;;;;;;;;;;;;;;;;;;6234106;23;20281;-89
2022/12/09 03:06:34;;;;;;;;;;;;;;;;;;6232992;23;19983;-89
2022/12/09 03:09:00;;;;;;;;;;;;;;;;;;6234144;23;19923;-89
2022/12/09 03:11:25;;;;;;;;;;;;;;;;;;6234771;23;19926;-89
2022/12/09 03:13:51;;;;;;;;;;;;;;;;;;6232213;23;20294;-89
2022/12/09 03:16:17;;;;;;;;;;;;;;;;;;6234734;23;19961;-89
2022/12/09 03:18:43;;;;;;;;;;;;;;;;;;6231905;23;19962;-89
2022/12/09 03:21:09;;;;;;;;;;;;;;;;;;6236035;23;20230;-89
2022/12/09 03:23:35;;;;;;;;;;;;;;;;;;6234234;23;19997;-89
2022/12/09 03:26:01;;;;;;;;;;;;;;;;;;6237713;23;19915;-89
2022/12/09 03:28:27;;;;;;;;;;;;;;;;;;6234300;23;19916;-89
2022/12/09 03:30:53;;;;;;;;;;;;;;;;;;6230215;23;19959;-89
2022/12/09 03:33:19;;;;;;;;;;;;;;;;;;6234086;23;19923;-89
2022/12/09 03:35:45;;;;;;;;;;;;;;;;;;6231829;23;19923;-88
2022/12/09 03:38:11;;;;;;;;;;;;;;;;;;6235052;23;19943;-89
2022/12/09 03:40:37;;;;;;;;;;;;;;;;;;6232038;23;19923;-90
2022/12/09 03:43:03;;;;;;;;;;;;;;;;;;6234988;23;19919;-89
2022/12/09 03:45:29;;;;;;;;;;;;;;;;;;6233555;23;19920;-89
2022/12/09 03:47:55;;;;;;;;;;;;;;;;;;6230357;23;19927;-89
2022/12/09 03:50:21;;;;;;;;;;;;;;;;;;6232237;23;20273;-89
2022/12/09 03:52:47;;;;;;;;;;;;;;;;;;6227894;23;19923;-89
2022/12/09 03:55:13;;;;;;;;;;;;;;;;;;6230670;22;20656;-89
2022/12/09 03:57:39;;;;;;;;;;;;;;;;;;6226801;23;20324;-89
2022/12/09 04:00:04;;;;;;;;;;;;;;;;;;6234103;23;20070;-89
2022/12/09 04:02:33;;;;;;;;;;;;;;;;;;6229771;23;19922;-89
2022/12/09 04:04:59;;;;;;;;;;;;;;;;;;6230323;23;19931;-89
2022/12/09 04:07:25;;;;;;;;;;;;;;;;;;6229921;23;19924;-89
2022/12/09 04:09:51;;;;;;;;;;;;;;;;;;6227636;23;20354;-89
2022/12/09 04:12:17;;;;;;;;;;;;;;;;;;6229421;23;19924;-89
2022/12/09 04:14:43;;;;;;;;;;;;;;;;;;6227555;23;19955;-90
2022/12/09 04:17:09;;;;;;;;;;;;;;;;;;6229159;23;19919;-90
2022/12/09 04:19:35;;;;;;;;;;;;;;;;;;6227084;23;19973;-90
2022/12/09 04:22:01;;;;;;;;;;;;;;;;;;6230832;23;19946;-89
2022/12/09 04:24:27;;;;;;;;;;;;;;;;;;6229422;23;19962;-89
2022/12/09 04:26:53;;;;;;;;;;;;;;;;;;6226600;23;19973;-89
2022/12/09 04:29:19;;;;;;;;;;;;;;;;;;6229851;23;19920;-89
2022/12/09 04:31:45;;;;;;;;;;;;;;;;;;6225529;23;20727;-89
2022/12/09 04:34:11;;;;;;;;;;;;;;;;;;6229460;23;19930;-89
2022/12/09 04:36:37;;;;;;;;;;;;;;;;;;6227295;23;20248;-90
2022/12/09 04:39:03;;;;;;;;;;;;;;;;;;6230030;23;20214;-90
2022/12/09 04:41:29;;;;;;;;;;;;;;;;;;6228131;23;20329;-89
2022/12/09 04:43:54;;;;;;;;;;;;;;;;;;6226810;23;19919;-89
2022/12/09 04:46:20;;;;;;;;;;;;;;;;;;6228638;23;19926;-90
2022/12/09 04:48:46;;;;;;;;;;;;;;;;;;6227205;23;19930;-89
2022/12/09 04:51:12;;;;;;;;;;;;;;;;;;6229804;23;19946;-89
2022/12/09 04:53:38;;;;;;;;;;;;;;;;;;6228077;23;19930;-89
2022/12/09 04:56:04;;;;;;;;;;;;;;;;;;6231509;23;19915;-89
2022/12/09 04:58:30;;;;;;;;;;;;;;;;;;6233338;23;20240;-89
2022/12/09 05:00:56;;;;;;;;;;;;;;;;;;6227772;23;19919;-89
2022/12/09 05:03:22;;;;;;;;;;;;;;;;;;6229862;23;19930;-89
2022/12/09 05:05:48;;;;;;;;;;;;;;;;;;6227529;23;19926;-88
2022/12/09 05:08:14;;;;;;;;;;;;;;;;;;6231501;23;19919;-90
2022/12/09 05:10:41;;;;;;;;;;;;;;;;;;6228755;23;20395;-91
2022/12/09 05:13:07;;;;;;;;;;;;;;;;;;6229653;23;19924;-90
2022/12/09 05:15:33;;;;;;;;;;;;;;;;;;6227012;23;19915;-91
2022/12/09 05:18:01;;;;;;;;;;;;;;;;;;6227568;23;19958;-90
2022/12/09 05:20:28;;;;;;;;;;;;;;;;;;6228475;23;19920;-89
2022/12/09 05:22:54;;;;;;;;;;;;;;;;;;6226296;23;20434;-90
2022/12/09 05:25:19;;;;;;;;;;;;;;;;;;6228667;23;19916;-90
2022/12/09 05:27:45;;;;;;;;;;;;;;;;;;6228900;23;19923;-90
2022/12/09 05:30:11;;;;;;;;;;;;;;;;;;6226780;23;20363;-90
2022/12/09 05:32:37;;;;;;;;;;;;;;;;;;6225835;23;20214;-90
2022/12/09 05:35:03;;;;;;;;;;;;;;;;;;6229744;23;20006;-90
2022/12/09 05:37:29;;;;;;;;;;;;;;;;;;6229011;23;19926;-90
2022/12/09 05:39:55;;;;;;;;;;;;;;;;;;6228379;23;20033;-90
2022/12/09 05:42:21;;;;;;;;;;;;;;;;;;6229238;23;19919;-90
2022/12/09 05:44:47;;;;;;;;;;;;;;;;;;6225187;23;19926;-90
2022/12/09 05:47:13;;;;;;;;;;;;;;;;;;6230076;23;19919;-90
2022/12/09 05:49:39;;;;;;;;;;;;;;;;;;6226995;23;19919;-90
2022/12/09 05:52:05;;;;;;;;;;;;;;;;;;6228512;23;19923;-90
2022/12/09 05:54:34;;;;;;;;;;;;;;;;;;6231708;22;19930;-90
2022/12/09 05:57:02;;;;;;;;;;;;;;;;;;6233819;23;19922;-90
2022/12/09 05:59:28;;;;;;;;;;;;;;;;;;6232690;23;20261;-90
2022/12/09 06:01:54;;;;;;;;;;;;;;;;;;6229596;23;19943;-90
2022/12/09 06:04:20;;;;;;;;;;;;;;;;;;6233088;23;19931;-90
2022/12/09 06:06:46;;;;;;;;;;;;;;;;;;6231057;23;19919;-90
2022/12/09 06:09:12;;;;;;;;;;;;;;;;;;6233265;23;19969;-90
2022/12/09 06:11:38;;;;;;;;;;;;;;;;;;6227917;23;19919;-90
2022/12/09 06:14:04;;;;;;;;;;;;;;;;;;6231587;23;20009;-91
2022/12/09 06:16:30;;;;;;;;;;;;;;;;;;6229752;23;19926;-90
2022/12/09 06:18:56;;;;;;;;;;;;;;;;;;6228785;23;19919;-90
2022/12/09 06:21:22;;;;;;;;;;;;;;;;;;6230917;23;19916;-90
2022/12/09 06:23:48;;;;;;;;;;;;;;;;;;6226699;23;19955;-90
2022/12/09 06:26:14;;;;;;;;;;;;;;;;;;6231537;23;19981;-90
2022/12/09 06:28:40;;;;;;;;;;;;;;;;;;6229445;23;20328;-90
2022/12/09 06:31:05;;;;;;;;;;;;;;;;;;6231259;23;20027;-90
2022/12/09 06:33:31;;;;;;;;;;;;;;;;;;6230697;23;20063;-88
2022/12/09 06:35:57;;;;;;;;;;;;;;;;;;6232536;23;20328;-89
2022/12/09 06:38:23;;;;;;;;;;;;;;;;;;6231005;23;19926;-89
2022/12/09 06:40:49;;;;;;;;;;;;;;;;;;6228222;23;19990;-89
2022/12/09 06:43:15;;;;;;;;;;;;;;;;;;6231466;23;19930;-89
2022/12/09 06:45:41;;;;;;;;;;;;;;;;;;6226917;23;19927;-90
2022/12/09 06:48:07;;;;;;;;;;;;;;;;;;6231108;23;20444;-89
2022/12/09 06:50:33;;;;;;;;;;;;;;;;;;6226560;23;19958;-89
2022/12/09 06:52:59;;;;;;;;;;;;;;;;;;6231721;23;19931;-90
2022/12/09 06:55:25;;;;;;;;;;;;;;;;;;6230681;22;19955;-90
2022/12/09 06:57:51;;;;;;;;;;;;;;;;;;6228786;23;19961;-89
2022/12/09 07:00:17;;;;;;;;;;;;;;;;;;6230844;23;19919;-89
2022/12/09 07:02:43;;;;;;;;;;;;;;;;;;6228266;23;20333;-89
2022/12/09 07:05:09;;;;;;;;;;;;;;;;;;6230340;23;20442;-90
2022/12/09 07:07:35;;;;;;;;;;;;;;;;;;6227251;23;20567;-90
2022/12/09 07:10:01;;;;;;;;;;;;;;;;;;6231975;23;19942;-89
2022/12/09 07:12:26;;;;;;;;;;;;;;;;;;6230544;23;20022;-89
2022/12/09 07:14:52;;;;;;;;;;;;;;;;;;6227542;23;19931;-89
2022/12/09 07:17:18;;;;;;;;;;;;;;;;;;6231382;23;19919;-89
2022/12/09 07:19:45;;;;;;;;;;;;;;;;;;6229184;23;19927;-90
2022/12/09 07:22:11;;;;;;;;;;;;;;;;;;6227135;23;20195;-91
2022/12/09 07:24:37;;;;;;;;;;;;;;;;;;6226287;23;19920;-90
2022/12/09 07:27:03;;;;;;;;;;;;;;;;;;6228790;23;20005;-90
2022/12/09 07:29:29;;;;;;;;;;;;;;;;;;6229768;23;19919;-90
2022/12/09 07:31:55;;;;;;;;;;;;;;;;;;6232832;23;19924;-90
2022/12/09 07:34:21;;;;;;;;;;;;;;;;;;6236264;23;19941;-89
2022/12/09 07:36:47;;;;;;;;;;;;;;;;;;6227286;23;19927;-90
2022/12/09 08:26:21;;;;;;;;;;;;;;;;;;;;;
2022/12/09 08:29:12;;;;;;;;;;;;;;;;;;6206404;23;19927;-87
2022/12/09 08:32:02;;;;;;;;;;;;;;;;;;;;;
2022/12/09 08:37:20;;;;;;;;;;;;;;;;;;6165136;23;19991;-86
2022/12/09 08:43:12;;;;;;;;;;;;;;;;;;6135985;23;20459;-87
2022/12/09 08:49:20;;;;;;;;;;;;;;;;;;6038093;23;19973;-88
2022/12/09 08:52:24;;;;;;;;;;;;;;;;;;6013904;23;19970;-88
2022/12/09 08:55:14;;;;;;;;;;;;;;;;;;6058019;23;19984;-87
2022/12/09 08:58:05;;;;;;;;;;;;;;;;;;;;;
2022/12/09 09:00:55;;;;;;;;;;;;;;;;;;6051181;23;19977;-87
2022/12/09 09:06:47;;;;;;;;;;;;;;;;;;6000560;23;19918;-87
2022/12/09 09:09:24;;;;;;;;;;;;;;;;;;5971366;23;20069;-87
2022/12/09 09:12:11;;;;;;;;;;;;;;;;;;5989055;23;19926;-86
2022/12/09 09:14:53;;;;;;;;;;;;;;;;;;5971734;23;20439;-87
2022/12/09 09:17:32;;;;;;;;;;;;;;;;;;6017916;23;20099;-87
2022/12/09 09:20:13;;;;;;;;;;;;;;;;;;;;;
2022/12/09 09:25:45;;;;;;;;;;;;;;;;;;6117680;23;19927;-87
2022/12/09 09:28:42;;;;;;;;;;;;;;;;;;;;;
2022/12/09 09:31:14;;;;;;;;;;;;;;;;;;6144380;23;19935;-86
2022/12/09 09:33:53;;;;;;;;;;;;;;;;;;6140736;23;19917;-87
2022/12/09 09:36:41;;;;;;;;;;;;;;;;;;6146647;23;19924;-87
2022/12/09 09:42:42;;;;;;;;;;;;;;;;;;;;;
2022/12/09 09:45:26;;;;;;;;;;;;;;;;;;6207850;23;19922;-86
2022/12/09 09:51:17;;;;;;;;;;;;;;;;;;6206955;23;19919;-87
2022/12/09 09:54:18;;;;;;;;;;;;;;;;;;;;;
2022/12/09 10:03:27;;;;;;;;;;;;;;;;;;6119944;23;20323;-87
2022/12/09 10:08:47;;;;;;;;;;;;;;;;;;6130041;23;20341;-87
2022/12/09 10:21:24;;;;;;;;;;;;;;;;;;6151080;23;20083;-87
2022/12/09 10:24:17;;;;;;;;;;;;;;;;;;6128349;23;19947;-88
2022/12/09 10:33:09;;;;;;;;;;;;;;;;;;6134295;23;19921;-87
2022/12/09 10:36:04;;;;;;;;;;;;;;;;;;6141150;23;19931;-87
2022/12/09 10:44:36;;;;;;;;;;;;;;;;;;6249968;23;19992;-87
2022/12/09 10:47:27;;;;;;;;;;;;;;;;;;;;;
2022/12/09 10:50:30;;;;;;;;;;;;;;;;;;6096388;23;19956;-87
2022/12/09 10:53:05;;;;;;;;;;;;;;;;;;6039067;23;19965;-87
2022/12/09 10:55:47;;;;;;;;;;;;;;;;;;6039670;23;19948;-87
2022/12/09 10:58:26;;;;;;;;;;;;;;;;;;;;;
2022/12/09 11:01:14;;;;;;;;;;;;;;;;;;6005904;23;19917;-86
2022/12/09 11:04:07;;;;;;;;;;;;;;;;;;6002873;23;20379;-87
2022/12/09 11:12:59;;;;;;;;;;;;;;;;;;;;;
2022/12/09 11:18:45;;;;;;;;;;;;;;;;;;6038922;23;19953;-86
2022/12/09 11:21:32;;;;;;;;;;;;;;;;;;6068520;23;19929;-87
2022/12/09 11:29:53;;;;;;;;;;;;;;;;;;6221984;22;20331;-87
2022/12/09 11:32:22;;;;;;;;;;;;;;;;;;6240193;22;20251;-87
2022/12/09 11:35:24;;;;;;;;;;;;;;;;;;6242448;22;19965;-87
2022/12/09 11:38:01;;;;;;;;;;;;;;;;;;6240147;22;19995;-87
2022/12/09 11:40:35;;;;;;;;;;;;;;;;;;6240975;22;20247;-87
2022/12/09 11:43:14;;;;;;;;;;;;;;;;;;;;;
2022/12/09 11:45:43;;;;;;;;;;;;;;;;;;6240716;22;20014;-86
2022/12/09 11:48:10;;;;;;;;;;;;;;;;;;6239747;22;20045;-87
2022/12/09 11:50:43;;;;;;;;;;;;;;;;;;6237617;22;20243;-86
2022/12/09 11:53:23;;;;;;;;;;;;;;;;;;6242794;22;19923;-87
2022/12/09 11:56:00;;;;;;;;;;;;;;;;;;6238582;22;19927;-86
2022/12/09 11:58:29;;;;;;;;;;;;;;;;;;6241752;22;19915;-86
2022/12/09 12:01:31;;;;;;;;;;;;;;;;;;6240435;22;19924;-87
2022/12/09 12:03:59;;;;;;;;;;;;;;;;;;6237607;22;19915;-86
2022/12/09 12:06:55;;;;;;;;;;;;;;;;;;;;;
2022/12/09 12:13:01;;;;;;;;;;;;;;;;;;6270849;22;19923;-86
2022/12/09 12:18:28;;;;;;;;;;;;;;;;;;6236901;22;19924;-86
2022/12/09 12:20:59;;;;;;;;;;;;;;;;;;6239092;22;19919;-86
2022/12/09 12:23:39;;;;;;;;;;;;;;;;;;6203462;23;20035;-86
2022/12/09 12:29:14;;;;;;;;;;;;;;;;;;;;;
2022/12/09 12:31:51;;;;;;;;;;;;;;;;;;6202126;23;20245;-86
2022/12/09 12:40:10;;;;;;;;;;;;;;;;;;6170110;23;19916;-86
2022/12/09 12:51:20;;;;;;;;;;;;;;;;;;6209056;23;19931;-86
2022/12/09 12:54:14;;;;;;;;;;;;;;;;;;;;;
2022/12/09 13:05:46;;;;;;;;;;;;;;;;;;6196731;23;19955;-86
2022/12/09 13:08:18;;;;;;;;;;;;;;;;;;6177816;23;20775;-86
2022/12/09 13:11:02;;;;;;;;;;;;;;;;;;6203672;23;19924;-86
2022/12/09 13:16:26;;;;;;;;;;;;;;;;;;6204890;23;19985;-87
2022/12/09 13:18:57;;;;;;;;;;;;;;;;;;6174829;23;19919;-87
2022/12/09 13:21:39;;;;;;;;;;;;;;;;;;;;;
2022/12/09 13:24:16;;;;;;;;;;;;;;;;;;6204243;23;19924;-87
2022/12/09 13:26:48;;;;;;;;;;;;;;;;;;6174500;23;19930;-87
2022/12/09 13:29:24;;;;;;;;;;;;;;;;;;;;;
2022/12/09 13:32:14;;;;;;;;;;;;;;;;;;6229873;23;20010;-87
2022/12/09 13:34:53;;;;;;;;;;;;;;;;;;;;;
2022/12/09 13:43:31;;;;;;;;;;;;;;;;;;;;;
2022/12/09 13:46:14;;;;;;;;;;;;;;;;;;6264285;22;20323;-86
2022/12/09 13:48:47;;;;;;;;;;;;;;;;;;6236429;22;19950;-86
2022/12/09 13:51:13;;;;;;;;;;;;;;;;;;6242033;22;19998;-86
2022/12/09 13:57:05;;;;;;;;;;;;;;;;;;6238747;22;19923;-87
2022/12/09 14:00:21;;;;;;;;;;;;;;;;;;6241821;22;19919;-87
2022/12/09 14:02:39;;;;;;;;;;;;;;;;;;6261762;22;19915;-87
2022/12/09 14:05:14;;;;;;;;;;;;;;;;;;6240866;22;19925;-86
2022/12/09 14:08:08;;;;;;;;;;;;;;;;;;6264892;22;19929;-87
2022/12/09 14:10:42;;;;;;;;;;;;;;;;;;6232290;23;19978;-87
2022/12/09 14:13:11;;;;;;;;;;;;;;;;;;6208056;23;20494;-87
2022/12/09 14:18:49;;;;;;;;;;;;;;;;;;6157642;23;19944;-87
2022/12/09 14:27:19;;;;;;;;;;;;;;;;;;6185295;23;20016;-87
2022/12/09 14:29:51;;;;;;;;;;;;;;;;;;6173644;23;19959;-86
2022/12/09 14:32:32;;;;;;;;;;;;;;;;;;;;;
2022/12/09 14:35:04;;;;;;;;;;;;;;;;;;6174381;23;19962;-87
2022/12/09 14:37:48;;;;;;;;;;;;;;;;;;6173461;23;20293;-86
2022/12/09 14:43:09;;;;;;;;;;;;;;;;;;6180657;23;19919;-87
2022/12/09 14:48:39;;;;;;;;;;;;;;;;;;6264868;22;20416;-87
2022/12/09 14:51:08;;;;;;;;;;;;;;;;;;6243071;22;19930;-86
2022/12/09 14:56:35;;;;;;;;;;;;;;;;;;6240975;22;19946;-86
2022/12/09 14:59:07;;;;;;;;;;;;;;;;;;6242967;22;19944;-86
2022/12/09 15:01:39;;;;;;;;;;;;;;;;;;6239790;22;19915;-86
2022/12/09 15:04:14;;;;;;;;;;;;;;;;;;6266716;22;19926;-86
2022/12/09 15:06:41;;;;;;;;;;;;;;;;;;6240044;22;19981;-86
2022/12/09 15:09:15;;;;;;;;;;;;;;;;;;6242508;22;19919;-86
2022/12/09 15:11:43;;;;;;;;;;;;;;;;;;6240989;22;20295;-86
2022/12/09 15:14:30;;;;;;;;;;;;;;;;;;6244211;22;19915;-86
2022/12/09 15:17:02;;;;;;;;;;;;;;;;;;6239840;22;19953;-86
2022/12/09 15:19:28;;;;;;;;;;;;;;;;;;6241890;22;19915;-86
2022/12/09 15:21:54;;;;;;;;;;;;;;;;;;6240319;22;19926;-86
2022/12/09 15:24:20;;;;;;;;;;;;;;;;;;6241769;22;19963;-86
2022/12/09 15:26:49;;;;;;;;;;;;;;;;;;6238851;22;19915;-86
2022/12/09 15:29:17;;;;;;;;;;;;;;;;;;6241728;22;19954;-86
2022/12/09 15:31:43;;;;;;;;;;;;;;;;;;6237178;22;19919;-86
2022/12/09 15:34:09;;;;;;;;;;;;;;;;;;6243765;22;19915;-86
2022/12/09 15:36:35;;;;;;;;;;;;;;;;;;6235199;22;20275;-86
2022/12/09 15:39:04;;;;;;;;;;;;;;;;;;6233005;22;19919;-86
2022/12/09 15:44:17;;;;;;;;;;;;;;;;;;6235982;22;19994;-86
2022/12/09 15:46:43;;;;;;;;;;;;;;;;;;6233615;22;20000;-86
2022/12/09 15:49:09;;;;;;;;;;;;;;;;;;6234177;22;19919;-85
2022/12/09 15:51:38;;;;;;;;;;;;;;;;;;6232661;22;19981;-85
2022/12/09 15:54:04;;;;;;;;;;;;;;;;;;6237737;22;20370;-85
2022/12/09 15:56:30;;;;;;;;;;;;;;;;;;6235576;22;19927;-85
2022/12/09 15:58:56;;;;;;;;;;;;;;;;;;6258554;22;19919;-85
2022/12/09 16:01:25;;;;;;;;;;;;;;;;;;6235521;22;19925;-85
2022/12/09 16:03:54;;;;;;;;;;;;;;;;;;6232201;22;20438;-85
2022/12/09 16:06:20;;;;;;;;;;;;;;;;;;6235166;22;19954;-84
2022/12/09 16:08:53;;;;;;;;;;;;;;;;;;6233932;22;19927;-85
2022/12/09 16:11:19;;;;;;;;;;;;;;;;;;6234691;22;19923;-84
2022/12/09 16:13:45;;;;;;;;;;;;;;;;;;6233255;22;19966;-85
2022/12/09 16:16:11;;;;;;;;;;;;;;;;;;6236878;22;20639;-85
2022/12/09 16:18:40;;;;;;;;;;;;;;;;;;6236311;22;19919;-86
2022/12/09 16:21:06;;;;;;;;;;;;;;;;;;6237524;22;19919;-86
2022/12/09 16:23:35;;;;;;;;;;;;;;;;;;6235352;22;19919;-86
2022/12/09 16:26:06;;;;;;;;;;;;;;;;;;6237938;22;19927;-86
2022/12/09 16:28:38;;;;;;;;;;;;;;;;;;6234828;22;19918;-86
2022/12/09 16:31:14;;;;;;;;;;;;;;;;;;;;;
2022/12/09 16:33:40;;;;;;;;;;;;;;;;;;6233885;22;19926;-86
2022/12/09 16:36:12;;;;;;;;;;;;;;;;;;6210717;22;19919;-86
2022/12/09 16:38:38;;;;;;;;;;;;;;;;;;6209221;22;19919;-85
2022/12/09 16:41:04;;;;;;;;;;;;;;;;;;6233600;22;20020;-86
2022/12/09 16:43:44;;;;;;;;;;;;;;;;;;6209433;22;19923;-86
2022/12/09 16:46:13;;;;;;;;;;;;;;;;;;6208708;22;19919;-86
2022/12/09 16:48:42;;;;;;;;;;;;;;;;;;6232837;22;19930;-86
2022/12/09 16:51:08;;;;;;;;;;;;;;;;;;6235982;22;20331;-85
2022/12/09 16:53:35;;;;;;;;;;;;;;;;;;6205802;22;19948;-86
2022/12/09 16:56:01;;;;;;;;;;;;;;;;;;6209761;22;19925;-86
2022/12/09 16:58:29;;;;;;;;;;;;;;;;;;6223301;22;19925;-85
2022/12/09 17:00:55;;;;;;;;;;;;;;;;;;6209270;22;20349;-86
2022/12/09 17:03:27;;;;;;;;;;;;;;;;;;6236833;22;20627;-86
2022/12/09 17:06:01;;;;;;;;;;;;;;;;;;6231537;22;19977;-86
2022/12/09 17:08:27;;;;;;;;;;;;;;;;;;6209921;22;19919;-85
2022/12/09 17:10:56;;;;;;;;;;;;;;;;;;6207881;22;20437;-85
2022/12/09 17:13:35;;;;;;;;;;;;;;;;;;;;;
2022/12/09 17:16:06;;;;;;;;;;;;;;;;;;6234908;22;19915;-85
2022/12/09 17:18:33;;;;;;;;;;;;;;;;;;6209189;22;19954;-86
2022/12/09 17:21:01;;;;;;;;;;;;;;;;;;6209798;22;19919;-86
2022/12/09 17:23:33;;;;;;;;;;;;;;;;;;6210345;22;19916;-86
2022/12/09 17:26:02;;;;;;;;;;;;;;;;;;6203443;23;19919;-85
2022/12/09 17:28:30;;;;;;;;;;;;;;;;;;6204513;23;19923;-85
2022/12/09 17:31:04;;;;;;;;;;;;;;;;;;6202387;23;20236;-85
2022/12/09 17:33:33;;;;;;;;;;;;;;;;;;6203805;23;20332;-85
2022/12/09 17:36:02;;;;;;;;;;;;;;;;;;6204582;23;19927;-85
2022/12/09 17:38:28;;;;;;;;;;;;;;;;;;6205931;23;19915;-86
2022/12/09 17:40:59;;;;;;;;;;;;;;;;;;6200769;23;19920;-85
2022/12/09 17:43:25;;;;;;;;;;;;;;;;;;6204801;23;19923;-85
2022/12/09 17:45:51;;;;;;;;;;;;;;;;;;6202015;23;20567;-85
2022/12/09 17:48:17;;;;;;;;;;;;;;;;;;6204014;23;19915;-86
2022/12/09 17:50:51;;;;;;;;;;;;;;;;;;6206691;23;20327;-87
2022/12/09 17:53:20;;;;;;;;;;;;;;;;;;6209126;23;19927;-86
2022/12/09 17:55:46;;;;;;;;;;;;;;;;;;6203192;23;19920;-85
2022/12/09 17:58:14;;;;;;;;;;;;;;;;;;6208417;23;19915;-85
2022/12/09 18:00:46;;;;;;;;;;;;;;;;;;6204251;23;19919;-85
2022/12/09 18:03:13;;;;;;;;;;;;;;;;;;6208205;23;19915;-85
2022/12/09 18:05:39;;;;;;;;;;;;;;;;;;6204636;23;19919;-85
2022/12/09 18:08:05;;;;;;;;;;;;;;;;;;6206260;23;19923;-86
2022/12/09 18:10:43;;;;;;;;;;;;;;;;;;6204874;23;19955;-85
2022/12/09 18:13:09;;;;;;;;;;;;;;;;;;6200330;23;20026;-85
2022/12/09 18:15:37;;;;;;;;;;;;;;;;;;6204552;23;19951;-85
2022/12/09 18:18:03;;;;;;;;;;;;;;;;;;6208317;23;19926;-86
2022/12/09 18:20:29;;;;;;;;;;;;;;;;;;6208269;23;19924;-86
2022/12/09 18:22:55;;;;;;;;;;;;;;;;;;6205174;23;20371;-87
2022/12/09 18:25:21;;;;;;;;;;;;;;;;;;6202478;23;19924;-86
2022/12/09 18:27:47;;;;;;;;;;;;;;;;;;6202860;23;19919;-86
2022/12/09 18:30:16;;;;;;;;;;;;;;;;;;6208437;23;19927;-86
2022/12/09 18:32:42;;;;;;;;;;;;;;;;;;6204154;23;19924;-86
2022/12/09 18:35:08;;;;;;;;;;;;;;;;;;6205609;23;19919;-85
2022/12/09 22:44:27;;;;;;;;;;;;;;;;;;6234088;22;20368;-89
2022/12/09 22:56:10;;;;;;;;;;;;;;;;;;6154387;23;19967;-90
2022/12/09 23:01:54;;;;;;;;;;;;;;;;;;;;;
2022/12/09 23:04:36;;;;;;;;;;;;;;;;;;;;;
2022/12/09 23:07:02;;;;;;;;;;;;;;;;;;6115695;23;19928;-90
2022/12/09 23:09:29;;;;;;;;;;;;;;;;;;6118471;23;20289;-90
2022/12/09 23:11:55;;;;;;;;;;;;;;;;;;6113154;23;19987;-90
2022/12/09 23:14:21;;;;;;;;;;;;;;;;;;6138688;23;19920;-90
2022/12/09 23:16:48;;;;;;;;;;;;;;;;;;6109388;23;20333;-89
2022/12/09 23:19:14;;;;;;;;;;;;;;;;;;6142281;23;19920;-89
2022/12/09 23:21:41;;;;;;;;;;;;;;;;;;6116221;23;19921;-90
2022/12/09 23:24:08;;;;;;;;;;;;;;;;;;6154598;23;19986;-90
2022/12/09 23:26:35;;;;;;;;;;;;;;;;;;6172628;23;19954;-90
2022/12/09 23:29:01;;;;;;;;;;;;;;;;;;6178376;23;19920;-90
2022/12/09 23:31:27;;;;;;;;;;;;;;;;;;6177613;23;19926;-90
2022/12/09 23:33:54;;;;;;;;;;;;;;;;;;6173212;23;19944;-90
2022/12/09 23:36:21;;;;;;;;;;;;;;;;;;6152744;23;19920;-90
2022/12/09 23:38:48;;;;;;;;;;;;;;;;;;6175243;23;19923;-91
2022/12/09 23:41:16;;;;;;;;;;;;;;;;;;6177601;23;19955;-90
2022/12/09 23:43:43;;;;;;;;;;;;;;;;;;6169286;23;19934;-90
2022/12/09 23:46:09;;;;;;;;;;;;;;;;;;6204785;23;19946;-90
2022/12/09 23:48:35;;;;;;;;;;;;;;;;;;6175446;23;19920;-91
2022/12/09 23:51:01;;;;;;;;;;;;;;;;;;6206790;23;19986;-90
2022/12/09 23:53:27;;;;;;;;;;;;;;;;;;6181061;23;19915;-90
2022/12/09 23:55:53;;;;;;;;;;;;;;;;;;6203099;23;20143;-90
2022/12/09 23:58:19;;;;;;;;;;;;;;;;;;6181097;23;19920;-90
